createdAt,value
2023-05-14T00:00:01.935Z,10.05
2023-05-14T00:02:29.950Z,10.08
2023-05-14T00:04:57.861Z,10.09
2023-05-14T00:07:30.738Z,10.11
2023-05-14T00:09:58.915Z,10.16
2023-05-14T00:12:27.332Z,10.12
2023-05-14T00:14:56.645Z,10.15
2023-05-14T00:17:24.322Z,10.12
2023-05-14T00:19:52.090Z,10.08
2023-05-14T00:22:19.931Z,9.98
2023-05-14T00:24:47.784Z,9.91
2023-05-14T00:27:15.649Z,9.94
2023-05-14T00:29:43.475Z,9.98
2023-05-14T00:32:12.698Z,10.08
2023-05-14T00:34:40.497Z,9.91
2023-05-14T00:37:08.320Z,9.78
2023-05-14T00:39:36.147Z,9.67
2023-05-14T00:42:04.009Z,9.60
2023-05-14T00:44:31.849Z,9.57
2023-05-14T00:47:00.665Z,9.47
2023-05-14T00:49:30.572Z,9.41
2023-05-14T00:52:00.345Z,9.37
2023-05-14T00:54:29.183Z,9.27
2023-05-14T00:56:57.386Z,9.27
2023-05-14T00:59:25.210Z,9.23
2023-05-14T01:01:53.116Z,9.22
2023-05-14T01:04:21.306Z,9.17
2023-05-14T01:06:57.285Z,9.10
2023-05-14T01:09:31.018Z,9.03
2023-05-14T01:12:05.826Z,9.06
2023-05-14T01:14:41.027Z,9.19
2023-05-14T01:17:11.927Z,9.29
2023-05-14T01:19:41.528Z,9.30
2023-05-14T01:22:11.747Z,9.19
2023-05-14T01:24:40.346Z,9.12
2023-05-14T01:27:14.373Z,9.10
2023-05-14T01:29:46.439Z,9.23
2023-05-14T01:32:14.938Z,9.19
2023-05-14T01:34:43.001Z,9.10
2023-05-14T01:37:13.793Z,9.07
2023-05-14T01:39:43.095Z,9.16
2023-05-14T01:42:11.328Z,9.12
2023-05-14T01:44:40.117Z,8.99
2023-05-14T01:47:08.004Z,8.89
2023-05-14T01:49:37.166Z,8.86
2023-05-14T01:52:05.309Z,8.83
2023-05-14T01:54:34.452Z,8.82
2023-05-14T01:57:02.282Z,8.75
2023-05-14T01:59:30.529Z,8.79
2023-05-14T02:01:58.476Z,8.65
2023-05-14T02:04:26.528Z,8.75
2023-05-14T02:06:54.498Z,8.75
2023-05-14T02:09:25.415Z,8.99
2023-05-14T02:11:54.643Z,9.05
2023-05-14T02:14:22.525Z,9.07
2023-05-14T02:16:51.058Z,8.89
2023-05-14T02:19:18.909Z,8.79
2023-05-14T02:21:46.913Z,9.03
2023-05-14T02:24:14.879Z,9.02
2023-05-14T02:26:43.021Z,9.06
2023-05-14T02:29:12.211Z,9.00
2023-05-14T02:31:40.119Z,8.82
2023-05-14T02:34:08.036Z,8.62
2023-05-14T02:36:35.843Z,8.69
2023-05-14T02:39:04.652Z,8.75
2023-05-14T02:41:32.500Z,8.75
2023-05-14T02:44:00.351Z,8.73
2023-05-14T02:46:29.758Z,8.62
2023-05-14T02:48:57.517Z,8.59
2023-05-14T02:51:26.438Z,8.69
2023-05-14T02:53:54.330Z,8.83
2023-05-14T02:56:22.334Z,8.71
2023-05-14T02:58:50.148Z,8.69
2023-05-14T03:01:18.825Z,8.51
2023-05-14T03:03:48.493Z,8.35
2023-05-14T03:06:16.857Z,8.25
2023-05-14T03:08:44.670Z,8.13
2023-05-14T03:11:12.580Z,8.16
2023-05-14T03:13:40.405Z,8.21
2023-05-14T03:16:08.732Z,8.31
2023-05-14T03:18:37.486Z,8.52
2023-05-14T03:21:06.722Z,8.61
2023-05-14T03:23:35.059Z,8.61
2023-05-14T03:26:03.807Z,8.71
2023-05-14T03:28:31.714Z,8.78
2023-05-14T03:31:01.042Z,8.75
2023-05-14T03:33:29.280Z,8.76
2023-05-14T03:35:57.110Z,8.83
2023-05-14T03:38:26.294Z,8.73
2023-05-14T03:40:54.179Z,8.47
2023-05-14T03:43:22.014Z,8.23
2023-05-14T03:45:52.408Z,8.11
2023-05-14T03:48:20.601Z,8.31
2023-05-14T03:50:49.027Z,8.35
2023-05-14T03:53:16.850Z,8.49
2023-05-14T03:55:47.906Z,8.54
2023-05-14T03:58:15.854Z,8.56
2023-05-14T04:00:44.116Z,8.56
2023-05-14T04:03:12.303Z,8.65
2023-05-14T04:05:40.218Z,8.75
2023-05-14T04:08:08.090Z,8.78
2023-05-14T04:10:36.017Z,8.68
2023-05-14T04:13:05.253Z,8.64
2023-05-14T04:15:39.165Z,8.61
2023-05-14T04:18:07.291Z,8.64
2023-05-14T04:20:35.177Z,8.73
2023-05-14T04:23:03.037Z,8.68
2023-05-14T04:25:30.866Z,8.69
2023-05-14T04:27:58.964Z,8.83
2023-05-14T04:30:28.125Z,8.86
2023-05-14T04:32:55.973Z,8.85
2023-05-14T04:35:25.005Z,8.86
2023-05-14T04:37:53.103Z,8.96
2023-05-14T04:40:21.164Z,9.00
2023-05-14T04:42:49.190Z,9.23
2023-05-14T04:45:17.047Z,9.88
2023-05-14T04:47:47.515Z,10.71
2023-05-14T04:50:15.536Z,11.20
2023-05-14T04:52:43.469Z,11.69
2023-05-14T04:55:11.391Z,11.63
2023-05-14T04:57:39.209Z,11.82
2023-05-14T05:00:09.573Z,11.97
2023-05-14T05:02:37.427Z,12.13
2023-05-14T05:05:07.226Z,12.74
2023-05-14T05:07:35.052Z,13.32
2023-05-14T05:10:02.885Z,14.04
2023-05-14T05:12:30.973Z,14.64
2023-05-14T05:14:58.974Z,14.83
2023-05-14T05:17:26.937Z,15.24
2023-05-14T05:19:55.002Z,15.65
2023-05-14T05:22:24.623Z,16.04
2023-05-14T05:24:52.415Z,15.97
2023-05-14T05:27:21.051Z,15.98
2023-05-14T05:29:48.941Z,16.19
2023-05-14T05:32:16.838Z,16.66
2023-05-14T05:34:44.675Z,17.00
2023-05-14T05:37:14.032Z,17.62
2023-05-14T05:39:43.180Z,18.26
2023-05-14T05:42:10.761Z,18.55
2023-05-14T05:44:38.553Z,19.13
2023-05-14T05:47:06.974Z,19.23
2023-05-14T05:49:36.794Z,19.74
2023-05-14T05:52:05.069Z,19.54
2023-05-14T05:54:33.294Z,19.91
2023-05-14T05:57:02.499Z,20.51
2023-05-14T05:59:30.598Z,20.87
2023-05-14T06:01:58.597Z,21.91
2023-05-14T06:04:26.409Z,21.57
2023-05-14T06:06:54.234Z,22.56
2023-05-14T06:09:22.083Z,22.39
2023-05-14T06:11:49.910Z,22.68
2023-05-14T06:14:19.136Z,22.84
2023-05-14T06:16:46.990Z,22.77
2023-05-14T06:19:14.902Z,22.12
2023-05-14T06:21:42.764Z,21.16
2023-05-14T06:24:11.106Z,20.10
2023-05-14T06:26:39.289Z,19.52
2023-05-14T06:29:07.091Z,19.43
2023-05-14T06:31:36.269Z,18.84
2023-05-14T06:34:04.282Z,18.61
2023-05-14T06:36:32.102Z,17.89
2023-05-14T06:38:59.880Z,17.01
2023-05-14T06:41:27.673Z,16.77
2023-05-14T06:43:55.466Z,16.18
2023-05-14T06:46:23.272Z,16.04
2023-05-14T06:48:52.468Z,16.28
2023-05-14T06:51:20.192Z,16.01
2023-05-14T06:53:48.862Z,16.02
2023-05-14T06:56:16.749Z,16.02
2023-05-14T06:58:44.554Z,16.13
2023-05-14T07:01:12.389Z,16.32
2023-05-14T07:03:40.432Z,16.09
2023-05-14T07:06:11.229Z,15.71
2023-05-14T07:08:40.404Z,15.57
2023-05-14T07:11:08.254Z,15.40
2023-05-14T07:13:36.244Z,15.68
2023-05-14T07:16:04.091Z,15.78
2023-05-14T07:18:32.192Z,15.82
2023-05-14T07:21:00.003Z,15.57
2023-05-14T07:23:29.153Z,15.43
2023-05-14T07:25:56.788Z,15.47
2023-05-14T07:28:24.578Z,15.50
2023-05-14T07:30:52.501Z,15.62
2023-05-14T07:33:20.353Z,15.78
2023-05-14T07:35:48.221Z,15.81
2023-05-14T07:38:16.220Z,15.97
2023-05-14T07:40:45.558Z,15.99
2023-05-14T07:43:13.385Z,16.22
2023-05-14T07:45:41.264Z,16.10
2023-05-14T07:48:09.310Z,15.78
2023-05-14T07:50:38.090Z,15.58
2023-05-14T07:53:06.066Z,16.01
2023-05-14T07:55:33.908Z,16.25
2023-05-14T07:58:03.127Z,15.69
2023-05-14T08:00:30.815Z,15.51
2023-05-14T08:02:58.792Z,15.38
2023-05-14T08:05:26.731Z,15.48
2023-05-14T08:07:54.609Z,15.54
2023-05-14T08:10:22.883Z,15.54
2023-05-14T08:12:50.969Z,15.41
2023-05-14T08:15:20.326Z,15.16
2023-05-14T08:17:48.217Z,15.16
2023-05-14T08:20:16.103Z,15.16
2023-05-14T08:22:43.902Z,15.53
2023-05-14T08:25:12.095Z,16.66
2023-05-14T08:27:39.915Z,17.04
2023-05-14T08:30:08.828Z,17.18
2023-05-14T08:32:38.574Z,17.22
2023-05-14T08:35:07.539Z,17.34
2023-05-14T08:37:35.391Z,17.21
2023-05-14T08:40:03.345Z,17.43
2023-05-14T08:42:31.860Z,17.48
2023-05-14T08:45:02.922Z,17.61
2023-05-14T08:47:31.733Z,17.62
2023-05-14T08:50:04.379Z,17.14
2023-05-14T08:52:32.874Z,17.24
2023-05-14T08:55:03.859Z,17.00
2023-05-14T08:57:33.638Z,17.55
2023-05-14T09:00:01.842Z,17.52
2023-05-14T09:02:31.449Z,17.52
2023-05-14T09:05:03.469Z,17.93
2023-05-14T09:07:31.412Z,17.87
2023-05-14T09:10:00.310Z,17.87
2023-05-14T09:12:28.202Z,19.05
2023-05-14T09:14:56.041Z,18.94
2023-05-14T09:17:27.165Z,19.47
2023-05-14T09:19:55.269Z,19.81
2023-05-14T09:22:24.443Z,19.80
2023-05-14T09:25:04.865Z,19.93
2023-05-14T09:27:34.182Z,19.87
2023-05-14T09:30:09.815Z,21.20
2023-05-14T09:32:39.063Z,20.17
2023-05-14T09:35:17.357Z,20.35
2023-05-14T09:37:49.104Z,20.96
2023-05-14T09:40:18.508Z,21.68
2023-05-14T09:42:46.435Z,22.59
2023-05-14T09:45:14.421Z,21.89
2023-05-14T09:47:42.847Z,21.88
2023-05-14T09:50:11.242Z,21.74
2023-05-14T09:52:39.665Z,21.41
2023-05-14T09:55:09.872Z,20.89
2023-05-14T09:57:37.653Z,21.62
2023-05-14T10:00:06.737Z,22.13
2023-05-14T10:02:38.054Z,22.90
2023-05-14T10:05:07.748Z,23.27
2023-05-14T10:07:41.465Z,23.99
2023-05-14T10:10:16.521Z,24.02
2023-05-14T10:12:50.162Z,24.21
2023-05-14T10:15:21.222Z,24.43
2023-05-14T10:17:54.299Z,24.21
2023-05-14T10:20:23.949Z,23.76
2023-05-14T10:22:52.492Z,24.24
2023-05-14T10:25:22.462Z,24.14
2023-05-14T10:27:50.393Z,23.97
2023-05-14T10:30:22.861Z,23.66
2023-05-14T10:32:50.943Z,24.64
2023-05-14T10:35:25.265Z,24.91
2023-05-14T10:37:53.338Z,25.12
2023-05-14T10:40:25.959Z,25.08
2023-05-14T10:42:54.310Z,24.31
2023-05-14T10:45:24.080Z,24.82
2023-05-14T10:47:52.083Z,25.25
2023-05-14T10:50:20.168Z,25.77
2023-05-14T10:52:47.937Z,25.50
2023-05-14T10:55:17.874Z,25.33
2023-05-14T10:57:47.581Z,25.26
2023-05-14T11:00:17.001Z,25.79
2023-05-14T11:02:45.698Z,26.72
2023-05-14T11:05:16.810Z,26.52
2023-05-14T11:07:45.766Z,26.88
2023-05-14T11:10:14.056Z,27.07
2023-05-14T11:12:43.456Z,27.20
2023-05-14T11:15:14.368Z,27.14
2023-05-14T11:17:43.516Z,26.73
2023-05-14T11:20:12.969Z,26.39
2023-05-14T11:22:42.228Z,26.47
2023-05-14T11:25:11.355Z,26.51
2023-05-14T11:27:39.882Z,26.55
2023-05-14T11:30:15.740Z,26.71
2023-05-14T11:32:46.104Z,26.59
2023-05-14T11:35:14.571Z,26.83
2023-05-14T11:37:42.507Z,27.17
2023-05-14T11:40:16.223Z,27.22
2023-05-14T11:42:44.317Z,27.43
2023-05-14T11:45:13.013Z,26.85
2023-05-14T11:47:43.038Z,26.76
2023-05-14T11:50:11.411Z,27.54
2023-05-14T11:52:41.411Z,27.90
2023-05-14T11:55:12.436Z,27.81
2023-05-14T11:57:40.940Z,27.39
2023-05-14T12:00:13.369Z,26.79
2023-05-14T12:02:41.385Z,25.29
2023-05-14T12:05:14.024Z,25.62
2023-05-14T12:07:45.236Z,25.42
2023-05-14T12:10:13.416Z,26.14
2023-05-14T12:12:41.252Z,26.24
2023-05-14T12:15:13.320Z,26.53
2023-05-14T12:17:41.329Z,26.96
2023-05-14T12:20:20.793Z,26.69
2023-05-14T12:22:48.687Z,26.41
2023-05-14T12:25:16.509Z,26.24
2023-05-14T12:27:46.329Z,25.73
2023-05-14T12:32:45.869Z,25.09
2023-05-14T12:35:15.101Z,25.74
2023-05-14T12:37:43.009Z,26.39
2023-05-14T12:40:11.473Z,26.82
2023-05-14T12:42:39.347Z,25.81
2023-05-14T12:45:08.715Z,25.59
2023-05-14T12:47:37.718Z,25.77
2023-05-14T12:50:06.959Z,25.23
2023-05-14T12:52:39.684Z,24.84
2023-05-14T12:55:08.739Z,24.47
2023-05-14T12:57:36.429Z,25.01
2023-05-14T13:00:06.852Z,24.60
2023-05-14T13:02:42.250Z,23.76
2023-05-14T13:05:11.605Z,23.11
2023-05-14T13:07:40.892Z,23.10
2023-05-14T13:10:09.873Z,23.05
2023-05-14T13:12:38.627Z,22.47
2023-05-14T13:15:07.359Z,22.52
2023-05-14T13:17:35.232Z,22.66
2023-05-14T13:20:04.250Z,23.03
2023-05-14T13:22:31.859Z,23.85
2023-05-14T13:25:01.016Z,23.31
2023-05-14T13:27:30.414Z,22.90
2023-05-14T13:29:58.783Z,22.81
2023-05-14T13:32:26.787Z,22.55
2023-05-14T13:34:54.632Z,22.10
2023-05-14T13:37:22.493Z,22.20
2023-05-14T13:39:51.524Z,22.74
2023-05-14T13:42:20.848Z,22.80
2023-05-14T13:44:48.723Z,22.57
2023-05-14T13:47:16.570Z,22.46
2023-05-14T13:49:44.479Z,22.56
2023-05-14T13:52:12.262Z,22.29
2023-05-14T13:54:40.102Z,21.96
2023-05-14T13:57:07.970Z,22.43
2023-05-14T13:59:37.256Z,22.61
2023-05-14T14:02:05.900Z,22.66
2023-05-14T14:04:33.782Z,22.94
2023-05-14T14:07:01.692Z,22.93
2023-05-14T14:09:33.730Z,22.91
2023-05-14T14:12:01.693Z,22.71
2023-05-14T14:14:29.721Z,22.23
2023-05-14T14:16:59.003Z,21.35
2023-05-14T14:19:26.807Z,21.17
2023-05-14T14:21:54.661Z,20.75
2023-05-14T14:24:22.465Z,20.26
2023-05-14T14:26:50.293Z,20.10
2023-05-14T14:29:18.115Z,20.07
2023-05-14T14:31:46.022Z,20.07
2023-05-14T14:34:15.308Z,20.15
2023-05-14T14:36:43.095Z,20.21
2023-05-14T14:39:11.138Z,20.01
2023-05-14T14:41:38.968Z,19.80
2023-05-14T14:44:06.754Z,19.66
2023-05-14T14:46:34.613Z,19.77
2023-05-14T14:49:02.440Z,20.08
2023-05-14T14:51:31.620Z,20.26
2023-05-14T14:53:59.511Z,20.51
2023-05-14T14:56:28.098Z,20.68
2023-05-14T14:58:55.864Z,20.87
2023-05-14T15:01:23.758Z,20.93
2023-05-14T15:03:51.682Z,21.08
2023-05-14T15:06:19.544Z,21.16
2023-05-14T15:08:48.693Z,21.13
2023-05-14T15:11:16.545Z,20.99
2023-05-14T15:13:44.360Z,20.87
2023-05-14T15:16:12.449Z,20.76
2023-05-14T15:18:40.330Z,20.62
2023-05-14T15:21:08.206Z,20.46
2023-05-14T15:23:36.044Z,19.95
2023-05-14T15:26:05.548Z,19.98
2023-05-14T15:28:33.380Z,20.07
2023-05-14T15:31:02.437Z,20.00
2023-05-14T15:33:30.092Z,20.04
2023-05-14T15:35:57.882Z,20.07
2023-05-14T15:38:25.667Z,20.12
2023-05-14T15:40:53.468Z,20.28
2023-05-14T15:43:22.728Z,20.34
2023-05-14T15:45:50.515Z,20.42
2023-05-14T15:48:18.351Z,20.56
2023-05-14T15:50:49.663Z,20.71
2023-05-14T15:53:17.818Z,20.76
2023-05-14T15:55:46.285Z,20.85
2023-05-14T15:58:14.082Z,20.86
2023-05-14T16:00:43.230Z,20.99
2023-05-14T16:03:12.335Z,20.92
2023-05-14T16:05:40.267Z,20.96
2023-05-14T16:08:08.320Z,20.87
2023-05-14T16:10:36.206Z,20.96
2023-05-14T16:13:04.111Z,20.83
2023-05-14T16:15:31.958Z,20.90
2023-05-14T16:18:01.314Z,20.86
2023-05-14T16:20:29.269Z,20.85
2023-05-14T16:22:57.102Z,20.83
2023-05-14T16:25:24.948Z,20.90
2023-05-14T16:27:52.793Z,20.90
2023-05-14T16:30:20.623Z,20.90
2023-05-14T16:32:49.653Z,20.82
2023-05-14T16:35:18.708Z,20.85
2023-05-14T16:37:46.365Z,20.75
2023-05-14T16:40:16.146Z,20.57
2023-05-14T16:42:44.064Z,20.59
2023-05-14T16:45:12.773Z,20.56
2023-05-14T16:47:40.697Z,20.52
2023-05-14T16:50:09.176Z,20.46
2023-05-14T16:52:38.320Z,20.41
2023-05-14T16:55:06.583Z,20.51
2023-05-14T16:57:34.725Z,20.44
2023-05-14T17:00:06.019Z,20.49
2023-05-14T17:02:34.244Z,20.49
2023-05-14T17:05:02.151Z,20.52
2023-05-14T17:07:31.178Z,20.57
2023-05-14T17:10:00.671Z,20.51
2023-05-14T17:12:28.599Z,20.55
2023-05-14T17:14:56.415Z,20.48
2023-05-14T17:17:24.280Z,20.41
2023-05-14T17:19:52.085Z,20.38
2023-05-14T17:22:19.868Z,20.31
2023-05-14T17:24:47.640Z,20.34
2023-05-14T17:27:16.869Z,20.24
2023-05-14T17:29:44.724Z,20.12
2023-05-14T17:32:12.692Z,20.03
2023-05-14T17:34:40.515Z,20.01
2023-05-14T17:37:08.483Z,19.93
2023-05-14T17:39:36.504Z,19.88
2023-05-14T17:42:04.688Z,19.78
2023-05-14T17:44:33.862Z,19.57
2023-05-14T17:47:03.081Z,19.34
2023-05-14T17:49:31.081Z,19.32
2023-05-14T17:51:58.933Z,19.23
2023-05-14T17:54:26.850Z,19.19
2023-05-14T17:56:54.704Z,19.12
2023-05-14T17:59:24.199Z,19.05
2023-05-14T18:01:53.856Z,18.94
2023-05-14T18:04:21.690Z,18.79
2023-05-14T18:06:49.580Z,18.68
2023-05-14T18:09:17.508Z,18.55
2023-05-14T18:11:46.008Z,18.58
2023-05-14T18:14:14.096Z,18.44
2023-05-14T18:16:42.000Z,18.38
2023-05-14T18:19:11.555Z,18.30
2023-05-14T18:21:39.657Z,18.20
2023-05-14T18:24:08.242Z,18.11
2023-05-14T18:26:36.284Z,18.07
2023-05-14T18:29:04.143Z,17.96
2023-05-14T18:31:32.169Z,17.89
2023-05-14T18:34:00.197Z,17.80
2023-05-14T18:36:29.407Z,17.70
2023-05-14T18:38:57.073Z,17.58
2023-05-14T18:41:24.916Z,17.49
2023-05-14T18:43:52.742Z,17.39
2023-05-14T18:46:20.781Z,17.32
2023-05-14T18:48:48.737Z,17.22
2023-05-14T18:51:16.585Z,17.17
2023-05-14T18:53:45.729Z,17.11
2023-05-14T18:56:13.384Z,16.98
2023-05-14T18:58:41.225Z,16.91
2023-05-14T19:01:09.102Z,16.87
2023-05-14T19:03:37.057Z,16.80
2023-05-14T19:06:05.104Z,16.70
2023-05-14T19:08:32.922Z,16.69
2023-05-14T19:11:02.124Z,16.60
2023-05-14T19:13:30.242Z,16.50
2023-05-14T19:15:58.205Z,16.42
2023-05-14T19:18:26.122Z,16.30
2023-05-14T19:20:53.947Z,16.28
2023-05-14T19:23:21.741Z,16.22
2023-05-14T19:25:49.693Z,16.10
2023-05-14T19:28:19.901Z,16.01
2023-05-14T19:30:47.773Z,15.92
2023-05-14T19:33:15.660Z,15.84
2023-05-14T19:35:43.618Z,15.79
2023-05-14T19:38:11.401Z,15.72
2023-05-14T19:40:39.208Z,15.71
2023-05-14T19:43:07.886Z,15.67
2023-05-14T19:45:39.201Z,15.68
2023-05-14T19:48:07.322Z,15.62
2023-05-14T19:50:36.848Z,15.54
2023-05-14T19:53:05.091Z,15.51
2023-05-14T19:55:33.398Z,15.46
2023-05-14T19:58:01.246Z,15.43
2023-05-14T20:00:29.085Z,15.40
2023-05-14T20:02:59.546Z,15.41
2023-05-14T20:05:27.870Z,15.34
2023-05-14T20:07:55.691Z,15.36
2023-05-14T20:10:24.258Z,15.38
2023-05-14T20:12:52.227Z,15.31
2023-05-14T20:15:20.101Z,15.30
2023-05-14T20:17:47.952Z,15.24
2023-05-14T20:20:17.637Z,15.20
2023-05-14T20:22:45.456Z,15.22
2023-05-14T20:25:13.652Z,15.26
2023-05-14T20:27:41.493Z,15.24
2023-05-14T20:30:10.047Z,15.22
2023-05-14T20:32:37.988Z,15.20
2023-05-14T20:35:06.685Z,15.24
2023-05-14T20:37:35.869Z,15.14
2023-05-14T20:40:04.955Z,15.14
2023-05-14T20:42:32.770Z,15.19
2023-05-14T20:45:00.670Z,15.13
2023-05-14T20:47:30.542Z,15.16
2023-05-14T20:49:58.403Z,15.19
2023-05-14T20:52:26.226Z,15.17
2023-05-14T20:54:55.486Z,15.24
2023-05-14T20:57:23.518Z,15.28
2023-05-14T20:59:51.355Z,15.33
2023-05-14T21:02:19.340Z,15.26
2023-05-14T21:04:47.303Z,15.19
2023-05-14T21:07:15.137Z,15.14
2023-05-14T21:09:46.327Z,15.14
2023-05-14T21:12:15.549Z,15.11
2023-05-14T21:14:43.179Z,15.03
2023-05-14T21:17:11.075Z,15.03
2023-05-14T21:19:39.152Z,15.00
2023-05-14T21:22:07.633Z,14.95
2023-05-14T21:24:35.617Z,14.93
2023-05-14T21:27:03.574Z,14.86
2023-05-14T21:29:32.751Z,14.86
2023-05-14T21:32:00.519Z,14.77
2023-05-14T21:34:29.778Z,14.73
2023-05-14T21:36:59.005Z,14.72
2023-05-14T21:39:26.814Z,14.65
2023-05-14T21:41:54.638Z,14.71
2023-05-14T21:44:22.584Z,14.68
2023-05-14T21:46:51.787Z,14.59
2023-05-14T21:49:19.417Z,14.59
2023-05-14T21:51:52.783Z,14.58
2023-05-14T21:54:20.903Z,14.52
2023-05-14T21:56:48.814Z,14.49
2023-05-14T21:59:16.661Z,14.46
2023-05-14T22:04:16.731Z,14.42
2023-05-14T22:06:44.561Z,14.32
2023-05-14T22:09:12.396Z,14.29
2023-05-14T22:11:40.237Z,14.28
2023-05-14T22:14:08.035Z,14.20
2023-05-14T22:16:35.874Z,14.20
2023-05-14T22:19:05.947Z,14.10
2023-05-14T22:21:35.768Z,13.95
2023-05-14T22:24:03.492Z,13.91
2023-05-14T22:26:31.331Z,13.91
2023-05-14T22:28:59.154Z,13.86
2023-05-14T22:31:27.003Z,13.80
2023-05-14T22:33:54.874Z,13.83
2023-05-14T22:36:22.633Z,13.91
2023-05-14T22:38:51.882Z,13.80
2023-05-14T22:41:19.502Z,13.73
2023-05-14T22:43:48.649Z,13.71
2023-05-14T22:46:16.653Z,13.62
2023-05-14T22:48:44.989Z,13.60
2023-05-14T22:51:12.754Z,13.56
2023-05-14T22:53:40.541Z,13.49
2023-05-14T22:56:09.790Z,13.52
2023-05-14T22:58:37.379Z,13.57
2023-05-14T23:01:05.254Z,13.63
2023-05-14T23:03:33.069Z,13.66
2023-05-14T23:06:00.922Z,13.64
2023-05-14T23:08:28.696Z,13.64
2023-05-14T23:10:56.501Z,13.69
2023-05-14T23:13:25.681Z,13.80
2023-05-14T23:15:53.591Z,13.87
2023-05-14T23:18:21.414Z,13.95
2023-05-14T23:20:49.313Z,14.00
2023-05-14T23:23:17.149Z,14.07
2023-05-14T23:25:45.261Z,14.03
2023-05-14T23:28:13.181Z,14.03
2023-05-14T23:30:42.358Z,14.01
2023-05-14T23:33:10.267Z,14.08
2023-05-14T23:35:39.501Z,14.05
2023-05-14T23:38:07.426Z,14.04
2023-05-14T23:40:35.387Z,14.05
2023-05-14T23:43:03.239Z,14.05
2023-05-14T23:45:31.667Z,14.05
2023-05-14T23:48:02.072Z,14.00
2023-05-14T23:50:29.893Z,14.01
2023-05-14T23:52:57.742Z,14.07
2023-05-14T23:55:25.975Z,14.13
2023-05-14T23:57:53.944Z,14.05
